Terminal Aerodrome Forecast
Issued by NWS

Home | Current Version | Previous Version | Text Only | Print | Product List | Glossary On
Versions: 1 2 3 4 5 6 7 8 9 10 11 12 13 14 15 16 17 18 19
000
FTUS44 KTSA 021700
TAFXNA
TAF
KXNA 021720Z 0218/0318 23004KT P6SM BKN040
     FM030000 14003KT P6SM SCT250
     FM031500 17012KT P6SM SCT035=

USA.gov is the U.S. government's official web portal to all federal, state and local government web resources and services.